sensor_id;sensor_type;location;lat;lon;timestamp;P1;durP1;ratioP1;P2;durP2;ratioP2
22632;SDS011;11483;55.828;37.488;2023-07-31T00:17:16;10.80;;;3.50;;
22632;SDS011;11483;55.828;37.488;2023-07-31T00:19:42;9.68;;;3.90;;
22632;SDS011;11483;55.828;37.488;2023-07-31T00:22:08;20.02;;;4.68;;
22632;SDS011;11483;55.828;37.488;2023-07-31T00:24:34;9.35;;;3.90;;
22632;SDS011;11483;55.828;37.488;2023-07-31T00:27:00;14.75;;;4.72;;
22632;SDS011;11483;55.828;37.488;2023-07-31T00:29:26;5.43;;;3.67;;
22632;SDS011;11483;55.828;37.488;2023-07-31T00:31:51;8.90;;;4.28;;
22632;SDS011;11483;55.828;37.488;2023-07-31T00:34:17;6.70;;;3.47;;
22632;SDS011;11483;55.828;37.488;2023-07-31T00:36:43;9.10;;;3.85;;
22632;SDS011;11483;55.828;37.488;2023-07-31T00:39:09;8.43;;;3.55;;
22632;SDS011;11483;55.828;37.488;2023-07-31T00:41:35;8.25;;;3.75;;
22632;SDS011;11483;55.828;37.488;2023-07-31T00:44:00;14.27;;;4.35;;
22632;SDS011;11483;55.828;37.488;2023-07-31T00:46:26;9.40;;;4.38;;
22632;SDS011;11483;55.828;37.488;2023-07-31T00:48:52;17.40;;;4.57;;
22632;SDS011;11483;55.828;37.488;2023-07-31T00:51:18;9.13;;;4.10;;
22632;SDS011;11483;55.828;37.488;2023-07-31T00:53:44;12.65;;;3.97;;
22632;SDS011;11483;55.828;37.488;2023-07-31T00:56:11;8.05;;;3.88;;
22632;SDS011;11483;55.828;37.488;2023-07-31T00:58:38;12.63;;;3.90;;
22632;SDS011;11483;55.828;37.488;2023-07-31T01:01:05;6.10;;;3.25;;
22632;SDS011;11483;55.828;37.488;2023-07-31T01:03:31;10.45;;;3.95;;
22632;SDS011;11483;55.828;37.488;2023-07-31T01:11:57;5.88;;;3.05;;
22632;SDS011;11483;55.828;37.488;2023-07-31T01:14:21;5.93;;;3.40;;
22632;SDS011;11483;55.828;37.488;2023-07-31T01:16:47;9.13;;;3.75;;
22632;SDS011;11483;55.828;37.488;2023-07-31T01:19:14;10.57;;;3.72;;
22632;SDS011;11483;55.828;37.488;2023-07-31T01:27:17;5.90;;;3.10;;
22632;SDS011;11483;55.828;37.488;2023-07-31T01:30:08;7.30;;;3.38;;
22632;SDS011;11483;55.828;37.488;2023-07-31T01:32:48;10.35;;;2.88;;
22632;SDS011;11483;55.828;37.488;2023-07-31T01:35:16;6.65;;;2.78;;
22632;SDS011;11483;55.828;37.488;2023-07-31T01:37:42;4.85;;;2.75;;
22632;SDS011;11483;55.828;37.488;2023-07-31T01:40:08;5.32;;;2.80;;
22632;SDS011;11483;55.828;37.488;2023-07-31T01:42:34;16.20;;;3.83;;
22632;SDS011;11483;55.828;37.488;2023-07-31T01:45:00;9.00;;;3.20;;
22632;SDS011;11483;55.828;37.488;2023-07-31T01:47:26;5.95;;;3.35;;
22632;SDS011;11483;55.828;37.488;2023-07-31T01:49:52;7.93;;;3.67;;
22632;SDS011;11483;55.828;37.488;2023-07-31T01:52:18;6.35;;;3.17;;
22632;SDS011;11483;55.828;37.488;2023-07-31T01:54:43;6.55;;;3.50;;
22632;SDS011;11483;55.828;37.488;2023-07-31T01:57:09;7.28;;;3.20;;
22632;SDS011;11483;55.828;37.488;2023-07-31T01:59:35;13.13;;;3.08;;
22632;SDS011;11483;55.828;37.488;2023-07-31T02:02:01;6.10;;;3.50;;
22632;SDS011;11483;55.828;37.488;2023-07-31T02:04:27;6.40;;;3.05;;
22632;SDS011;11483;55.828;37.488;2023-07-31T02:06:52;5.80;;;3.00;;
22632;SDS011;11483;55.828;37.488;2023-07-31T02:09:19;8.75;;;2.83;;
22632;SDS011;11483;55.828;37.488;2023-07-31T02:11:44;6.88;;;3.10;;
22632;SDS011;11483;55.828;37.488;2023-07-31T02:14:10;4.57;;;2.60;;
22632;SDS011;11483;55.828;37.488;2023-07-31T02:16:36;12.57;;;2.97;;
22632;SDS011;11483;55.828;37.488;2023-07-31T02:19:02;8.25;;;3.17;;
22632;SDS011;11483;55.828;37.488;2023-07-31T02:21:28;9.02;;;3.50;;
22632;SDS011;11483;55.828;37.488;2023-07-31T02:23:53;8.18;;;3.65;;
22632;SDS011;11483;55.828;37.488;2023-07-31T02:26:20;4.70;;;2.88;;
22632;SDS011;11483;55.828;37.488;2023-07-31T02:28:46;6.70;;;2.97;;
22632;SDS011;11483;55.828;37.488;2023-07-31T02:31:11;5.07;;;2.92;;
22632;SDS011;11483;55.828;37.488;2023-07-31T02:33:37;9.18;;;3.72;;
22632;SDS011;11483;55.828;37.488;2023-07-31T02:36:03;8.30;;;2.95;;
22632;SDS011;11483;55.828;37.488;2023-07-31T02:38:29;11.68;;;3.25;;
22632;SDS011;11483;55.828;37.488;2023-07-31T02:40:55;9.82;;;2.83;;
22632;SDS011;11483;55.828;37.488;2023-07-31T02:43:21;6.22;;;2.80;;
22632;SDS011;11483;55.828;37.488;2023-07-31T02:45:50;5.43;;;3.13;;
22632;SDS011;11483;55.828;37.488;2023-07-31T02:48:17;13.57;;;4.22;;
22632;SDS011;11483;55.828;37.488;2023-07-31T02:50:43;8.25;;;3.25;;
22632;SDS011;11483;55.828;37.488;2023-07-31T02:53:10;5.32;;;3.00;;
22632;SDS011;11483;55.828;37.488;2023-07-31T02:55:36;8.48;;;3.20;;
22632;SDS011;11483;55.828;37.488;2023-07-31T02:58:01;8.13;;;3.17;;
22632;SDS011;11483;55.828;37.488;2023-07-31T03:00:27;9.85;;;3.70;;
22632;SDS011;11483;55.828;37.488;2023-07-31T03:02:53;14.18;;;4.25;;
22632;SDS011;11483;55.828;37.488;2023-07-31T03:05:19;10.30;;;3.97;;
22632;SDS011;11483;55.828;37.488;2023-07-31T03:07:45;9.55;;;4.00;;
22632;SDS011;11483;55.828;37.488;2023-07-31T03:10:11;10.32;;;3.80;;
22632;SDS011;11483;55.828;37.488;2023-07-31T03:12:37;12.27;;;3.38;;
22632;SDS011;11483;55.828;37.488;2023-07-31T03:15:03;10.48;;;3.72;;
22632;SDS011;11483;55.828;37.488;2023-07-31T03:17:30;10.38;;;3.83;;
22632;SDS011;11483;55.828;37.488;2023-07-31T03:19:55;8.73;;;3.63;;
22632;SDS011;11483;55.828;37.488;2023-07-31T03:22:21;15.18;;;4.30;;
22632;SDS011;11483;55.828;37.488;2023-07-31T03:24:47;6.95;;;3.30;;
22632;SDS011;11483;55.828;37.488;2023-07-31T03:27:13;11.05;;;4.43;;
22632;SDS011;11483;55.828;37.488;2023-07-31T03:29:39;8.60;;;4.00;;
22632;SDS011;11483;55.828;37.488;2023-07-31T03:32:04;12.93;;;3.70;;
22632;SDS011;11483;55.828;37.488;2023-07-31T03:34:30;11.90;;;4.13;;
22632;SDS011;11483;55.828;37.488;2023-07-31T03:36:57;11.30;;;4.53;;
22632;SDS011;11483;55.828;37.488;2023-07-31T03:39:23;7.50;;;3.15;;
22632;SDS011;11483;55.828;37.488;2023-07-31T03:41:49;5.85;;;3.85;;
22632;SDS011;11483;55.828;37.488;2023-07-31T03:44:15;12.38;;;3.20;;
22632;SDS011;11483;55.828;37.488;2023-07-31T03:46:41;5.25;;;3.15;;
22632;SDS011;11483;55.828;37.488;2023-07-31T03:49:07;6.78;;;3.42;;
22632;SDS011;11483;55.828;37.488;2023-07-31T03:51:33;11.20;;;4.40;;
22632;SDS011;11483;55.828;37.488;2023-07-31T03:53:58;9.50;;;3.83;;
22632;SDS011;11483;55.828;37.488;2023-07-31T03:56:25;13.50;;;4.80;;
22632;SDS011;11483;55.828;37.488;2023-07-31T03:58:50;11.35;;;4.40;;
22632;SDS011;11483;55.828;37.488;2023-07-31T04:01:16;10.18;;;4.57;;
22632;SDS011;11483;55.828;37.488;2023-07-31T04:03:43;9.68;;;4.30;;
22632;SDS011;11483;55.828;37.488;2023-07-31T04:06:08;11.73;;;4.13;;
22632;SDS011;11483;55.828;37.488;2023-07-31T04:08:35;11.60;;;4.50;;
22632;SDS011;11483;55.828;37.488;2023-07-31T04:11:01;7.22;;;4.43;;
22632;SDS011;11483;55.828;37.488;2023-07-31T04:13:28;8.55;;;4.45;;
22632;SDS011;11483;55.828;37.488;2023-07-31T04:15:55;12.07;;;4.40;;
22632;SDS011;11483;55.828;37.488;2023-07-31T04:18:21;10.23;;;4.60;;
22632;SDS011;11483;55.828;37.488;2023-07-31T04:20:50;16.10;;;4.25;;
22632;SDS011;11483;55.828;37.488;2023-07-31T04:23:15;12.68;;;4.20;;
22632;SDS011;11483;55.828;37.488;2023-07-31T04:25:41;8.68;;;4.05;;
22632;SDS011;11483;55.828;37.488;2023-07-31T04:28:07;10.67;;;4.27;;
22632;SDS011;11483;55.828;37.488;2023-07-31T04:30:33;12.18;;;4.35;;
22632;SDS011;11483;55.828;37.488;2023-07-31T04:32:59;12.93;;;4.28;;
22632;SDS011;11483;55.828;37.488;2023-07-31T04:35:25;14.70;;;4.13;;
22632;SDS011;11483;55.828;37.488;2023-07-31T04:37:50;8.25;;;4.13;;
22632;SDS011;11483;55.828;37.488;2023-07-31T04:40:16;10.32;;;4.10;;
22632;SDS011;11483;55.828;37.488;2023-07-31T04:42:42;10.93;;;3.95;;
22632;SDS011;11483;55.828;37.488;2023-07-31T04:45:08;13.67;;;3.97;;
22632;SDS011;11483;55.828;37.488;2023-07-31T04:47:34;9.18;;;4.03;;
22632;SDS011;11483;55.828;37.488;2023-07-31T04:50:00;8.77;;;3.60;;
22632;SDS011;11483;55.828;37.488;2023-07-31T04:52:26;8.18;;;3.97;;
22632;SDS011;11483;55.828;37.488;2023-07-31T04:54:52;6.70;;;3.80;;
22632;SDS011;11483;55.828;37.488;2023-07-31T04:57:18;10.13;;;3.83;;
22632;SDS011;11483;55.828;37.488;2023-07-31T04:59:43;9.00;;;4.10;;
22632;SDS011;11483;55.828;37.488;2023-07-31T05:02:11;8.75;;;3.53;;
22632;SDS011;11483;55.828;37.488;2023-07-31T05:04:38;15.88;;;3.95;;
22632;SDS011;11483;55.828;37.488;2023-07-31T05:07:04;7.15;;;3.85;;
22632;SDS011;11483;55.828;37.488;2023-07-31T05:09:30;9.48;;;3.70;;
22632;SDS011;11483;55.828;37.488;2023-07-31T05:11:56;10.38;;;3.58;;
22632;SDS011;11483;55.828;37.488;2023-07-31T05:14:21;11.37;;;3.70;;
22632;SDS011;11483;55.828;37.488;2023-07-31T05:16:47;11.40;;;4.20;;
22632;SDS011;11483;55.828;37.488;2023-07-31T05:19:13;12.50;;;3.97;;
22632;SDS011;11483;55.828;37.488;2023-07-31T05:21:39;11.00;;;4.03;;
22632;SDS011;11483;55.828;37.488;2023-07-31T05:24:05;11.93;;;3.88;;
22632;SDS011;11483;55.828;37.488;2023-07-31T05:26:31;10.02;;;3.90;;
22632;SDS011;11483;55.828;37.488;2023-07-31T05:28:57;10.17;;;3.80;;
22632;SDS011;11483;55.828;37.488;2023-07-31T05:31:23;6.57;;;3.72;;
22632;SDS011;11483;55.828;37.488;2023-07-31T05:33:49;6.63;;;3.47;;
22632;SDS011;11483;55.828;37.488;2023-07-31T05:36:16;11.45;;;3.53;;
22632;SDS011;11483;55.828;37.488;2023-07-31T05:38:42;14.50;;;3.80;;
22632;SDS011;11483;55.828;37.488;2023-07-31T05:41:11;10.82;;;3.78;;
22632;SDS011;11483;55.828;37.488;2023-07-31T05:43:38;10.60;;;3.57;;
22632;SDS011;11483;55.828;37.488;2023-07-31T05:46:04;16.08;;;4.20;;
22632;SDS011;11483;55.828;37.488;2023-07-31T05:48:29;11.13;;;3.60;;
22632;SDS011;11483;55.828;37.488;2023-07-31T05:50:55;17.45;;;3.50;;
22632;SDS011;11483;55.828;37.488;2023-07-31T05:53:21;10.50;;;3.60;;
22632;SDS011;11483;55.828;37.488;2023-07-31T05:55:47;11.70;;;3.50;;
22632;SDS011;11483;55.828;37.488;2023-07-31T05:58:13;18.73;;;3.57;;
22632;SDS011;11483;55.828;37.488;2023-07-31T06:00:39;14.15;;;3.53;;
22632;SDS011;11483;55.828;37.488;2023-07-31T06:03:06;8.27;;;3.25;;
22632;SDS011;11483;55.828;37.488;2023-07-31T06:05:32;10.63;;;3.67;;
22632;SDS011;11483;55.828;37.488;2023-07-31T06:07:57;12.30;;;3.80;;
22632;SDS011;11483;55.828;37.488;2023-07-31T06:10:23;9.70;;;3.30;;
22632;SDS011;11483;55.828;37.488;2023-07-31T06:12:49;18.20;;;3.80;;
22632;SDS011;11483;55.828;37.488;2023-07-31T06:15:15;14.43;;;4.00;;
22632;SDS011;11483;55.828;37.488;2023-07-31T06:17:43;13.57;;;3.70;;
22632;SDS011;11483;55.828;37.488;2023-07-31T06:20:08;11.47;;;3.50;;
22632;SDS011;11483;55.828;37.488;2023-07-31T06:22:35;13.88;;;3.60;;
22632;SDS011;11483;55.828;37.488;2023-07-31T06:25:01;16.77;;;3.70;;
22632;SDS011;11483;55.828;37.488;2023-07-31T06:27:27;11.80;;;3.47;;
22632;SDS011;11483;55.828;37.488;2023-07-31T06:29:53;13.83;;;3.33;;
22632;SDS011;11483;55.828;37.488;2023-07-31T06:32:19;7.63;;;2.77;;
22632;SDS011;11483;55.828;37.488;2023-07-31T06:34:45;11.95;;;2.95;;
22632;SDS011;11483;55.828;37.488;2023-07-31T06:37:10;9.68;;;3.03;;
22632;SDS011;11483;55.828;37.488;2023-07-31T06:39:36;6.30;;;2.20;;
22632;SDS011;11483;55.828;37.488;2023-07-31T06:42:02;10.87;;;2.37;;
22632;SDS011;11483;55.828;37.488;2023-07-31T06:44:29;7.30;;;2.05;;
22632;SDS011;11483;55.828;37.488;2023-07-31T06:46:55;4.60;;;2.30;;
22632;SDS011;11483;55.828;37.488;2023-07-31T06:49:21;7.35;;;2.05;;
22632;SDS011;11483;55.828;37.488;2023-07-31T06:51:47;4.37;;;2.30;;
22632;SDS011;11483;55.828;37.488;2023-07-31T06:54:12;3.60;;;2.10;;
22632;SDS011;11483;55.828;37.488;2023-07-31T06:56:38;5.23;;;2.17;;
22632;SDS011;11483;55.828;37.488;2023-07-31T06:59:04;7.28;;;2.75;;
22632;SDS011;11483;55.828;37.488;2023-07-31T07:01:30;11.48;;;2.50;;
22632;SDS011;11483;55.828;37.488;2023-07-31T07:03:56;9.90;;;2.50;;
22632;SDS011;11483;55.828;37.488;2023-07-31T07:06:22;7.03;;;2.10;;
22632;SDS011;11483;55.828;37.488;2023-07-31T07:08:48;4.70;;;2.00;;
22632;SDS011;11483;55.828;37.488;2023-07-31T07:11:14;6.25;;;2.17;;
22632;SDS011;11483;55.828;37.488;2023-07-31T07:13:40;7.78;;;2.00;;
22632;SDS011;11483;55.828;37.488;2023-07-31T07:16:05;4.40;;;1.90;;
22632;SDS011;11483;55.828;37.488;2023-07-31T07:18:31;6.53;;;1.95;;
22632;SDS011;11483;55.828;37.488;2023-07-31T07:20:57;6.78;;;1.80;;
22632;SDS011;11483;55.828;37.488;2023-07-31T07:23:23;3.75;;;1.70;;
22632;SDS011;11483;55.828;37.488;2023-07-31T07:25:49;8.45;;;2.03;;
22632;SDS011;11483;55.828;37.488;2023-07-31T07:28:16;6.53;;;1.80;;
22632;SDS011;11483;55.828;37.488;2023-07-31T07:30:42;6.70;;;1.87;;
22632;SDS011;11483;55.828;37.488;2023-07-31T07:33:08;4.53;;;1.85;;
22632;SDS011;11483;55.828;37.488;2023-07-31T07:35:34;2.20;;;1.38;;
22632;SDS011;11483;55.828;37.488;2023-07-31T07:38:01;3.30;;;1.20;;
22632;SDS011;11483;55.828;37.488;2023-07-31T07:40:27;1.27;;;1.17;;
22632;SDS011;11483;55.828;37.488;2023-07-31T07:42:53;2.23;;;1.20;;
22632;SDS011;11483;55.828;37.488;2023-07-31T07:45:19;2.30;;;1.40;;
22632;SDS011;11483;55.828;37.488;2023-07-31T07:47:45;1.80;;;1.27;;
22632;SDS011;11483;55.828;37.488;2023-07-31T07:50:11;3.73;;;1.30;;
22632;SDS011;11483;55.828;37.488;2023-07-31T07:52:37;2.05;;;1.25;;
22632;SDS011;11483;55.828;37.488;2023-07-31T07:55:03;2.97;;;1.20;;
22632;SDS011;11483;55.828;37.488;2023-07-31T07:57:29;2.53;;;1.38;;
22632;SDS011;11483;55.828;37.488;2023-07-31T07:59:55;2.65;;;1.60;;
22632;SDS011;11483;55.828;37.488;2023-07-31T08:02:21;2.38;;;1.30;;
22632;SDS011;11483;55.828;37.488;2023-07-31T08:04:47;2.92;;;1.27;;
22632;SDS011;11483;55.828;37.488;2023-07-31T08:07:13;3.05;;;1.45;;
22632;SDS011;11483;55.828;37.488;2023-07-31T08:09:39;3.80;;;1.40;;
22632;SDS011;11483;55.828;37.488;2023-07-31T08:12:06;3.55;;;1.40;;
22632;SDS011;11483;55.828;37.488;2023-07-31T08:55:54;3.72;;;1.65;;
22632;SDS011;11483;55.828;37.488;2023-07-31T09:05:43;2.08;;;1.40;;
22632;SDS011;11483;55.828;37.488;2023-07-31T09:08:10;2.10;;;1.42;;
22632;SDS011;11483;55.828;37.488;2023-07-31T09:30:29;4.68;;;1.60;;
22632;SDS011;11483;55.828;37.488;2023-07-31T09:33:05;5.20;;;1.60;;
22632;SDS011;11483;55.828;37.488;2023-07-31T09:35:34;2.05;;;1.52;;
22632;SDS011;11483;55.828;37.488;2023-07-31T09:38:03;3.08;;;1.52;;
22632;SDS011;11483;55.828;37.488;2023-07-31T09:40:31;3.47;;;1.60;;
22632;SDS011;11483;55.828;37.488;2023-07-31T09:42:59;4.35;;;1.45;;
22632;SDS011;11483;55.828;37.488;2023-07-31T09:45:27;2.38;;;1.52;;
22632;SDS011;11483;55.828;37.488;2023-07-31T09:47:54;2.60;;;1.50;;
22632;SDS011;11483;55.828;37.488;2023-07-31T09:50:21;3.00;;;1.25;;
22632;SDS011;11483;55.828;37.488;2023-07-31T09:52:48;2.53;;;1.90;;
22632;SDS011;11483;55.828;37.488;2023-07-31T09:55:14;1.85;;;1.25;;
22632;SDS011;11483;55.828;37.488;2023-07-31T09:57:41;3.42;;;1.58;;
22632;SDS011;11483;55.828;37.488;2023-07-31T10:00:09;2.03;;;1.40;;
22632;SDS011;11483;55.828;37.488;2023-07-31T10:02:40;2.80;;;1.45;;
22632;SDS011;11483;55.828;37.488;2023-07-31T10:05:06;4.43;;;1.80;;
22632;SDS011;11483;55.828;37.488;2023-07-31T10:07:39;3.88;;;1.50;;
22632;SDS011;11483;55.828;37.488;2023-07-31T10:10:10;2.55;;;1.60;;
22632;SDS011;11483;55.828;37.488;2023-07-31T10:12:38;3.65;;;1.80;;
22632;SDS011;11483;55.828;37.488;2023-07-31T10:15:04;4.88;;;1.80;;
22632;SDS011;11483;55.828;37.488;2023-07-31T10:17:31;1.83;;;1.73;;
22632;SDS011;11483;55.828;37.488;2023-07-31T10:19:58;3.50;;;1.50;;
22632;SDS011;11483;55.828;37.488;2023-07-31T10:22:26;5.68;;;1.85;;
22632;SDS011;11483;55.828;37.488;2023-07-31T10:24:54;4.72;;;1.85;;
22632;SDS011;11483;55.828;37.488;2023-07-31T10:27:22;4.03;;;1.73;;
22632;SDS011;11483;55.828;37.488;2023-07-31T10:29:48;5.95;;;2.03;;
22632;SDS011;11483;55.828;37.488;2023-07-31T10:32:15;3.75;;;1.67;;
22632;SDS011;11483;55.828;37.488;2023-07-31T10:34:42;6.57;;;1.58;;
22632;SDS011;11483;55.828;37.488;2023-07-31T10:37:25;2.47;;;1.70;;
22632;SDS011;11483;55.828;37.488;2023-07-31T10:39:59;6.72;;;1.85;;
22632;SDS011;11483;55.828;37.488;2023-07-31T10:42:36;10.55;;;1.70;;
22632;SDS011;11483;55.828;37.488;2023-07-31T10:45:13;7.75;;;1.63;;
22632;SDS011;11483;55.828;37.488;2023-07-31T10:47:43;1.95;;;1.48;;
22632;SDS011;11483;55.828;37.488;2023-07-31T10:50:13;3.70;;;1.60;;
22632;SDS011;11483;55.828;37.488;2023-07-31T10:52:50;1.88;;;1.35;;
22632;SDS011;11483;55.828;37.488;2023-07-31T10:57:53;3.85;;;1.67;;
22632;SDS011;11483;55.828;37.488;2023-07-31T11:00:20;4.85;;;1.70;;
22632;SDS011;11483;55.828;37.488;2023-07-31T11:03:01;1.83;;;1.40;;
22632;SDS011;11483;55.828;37.488;2023-07-31T11:08:41;3.72;;;1.70;;
22632;SDS011;11483;55.828;37.488;2023-07-31T11:11:09;2.70;;;1.60;;
22632;SDS011;11483;55.828;37.488;2023-07-31T11:16:20;2.08;;;1.85;;
22632;SDS011;11483;55.828;37.488;2023-07-31T11:18:48;5.15;;;2.03;;
22632;SDS011;11483;55.828;37.488;2023-07-31T11:21:22;3.88;;;2.53;;
22632;SDS011;11483;55.828;37.488;2023-07-31T11:23:50;3.58;;;2.03;;
22632;SDS011;11483;55.828;37.488;2023-07-31T11:26:17;2.38;;;1.88;;
22632;SDS011;11483;55.828;37.488;2023-07-31T11:28:46;8.48;;;2.08;;
22632;SDS011;11483;55.828;37.488;2023-07-31T11:31:13;12.55;;;2.38;;
22632;SDS011;11483;55.828;37.488;2023-07-31T11:33:39;4.80;;;2.00;;
22632;SDS011;11483;55.828;37.488;2023-07-31T11:36:04;4.28;;;2.17;;
22632;SDS011;11483;55.828;37.488;2023-07-31T11:38:31;5.68;;;1.80;;
22632;SDS011;11483;55.828;37.488;2023-07-31T11:41:02;4.00;;;1.98;;
22632;SDS011;11483;55.828;37.488;2023-07-31T11:43:30;5.78;;;2.50;;
22632;SDS011;11483;55.828;37.488;2023-07-31T11:45:57;6.55;;;2.08;;
22632;SDS011;11483;55.828;37.488;2023-07-31T11:48:27;4.13;;;2.42;;
22632;SDS011;11483;55.828;37.488;2023-07-31T11:50:59;2.30;;;1.80;;
22632;SDS011;11483;55.828;37.488;2023-07-31T11:53:31;5.05;;;2.05;;
22632;SDS011;11483;55.828;37.488;2023-07-31T11:56:03;4.60;;;1.98;;
22632;SDS011;11483;55.828;37.488;2023-07-31T11:58:31;4.28;;;1.90;;
22632;SDS011;11483;55.828;37.488;2023-07-31T12:00:57;6.03;;;2.03;;
22632;SDS011;11483;55.828;37.488;2023-07-31T12:08:18;3.88;;;1.95;;
22632;SDS011;11483;55.828;37.488;2023-07-31T12:13:21;7.20;;;2.58;;
22632;SDS011;11483;55.828;37.488;2023-07-31T12:20:45;8.53;;;2.47;;
22632;SDS011;11483;55.828;37.488;2023-07-31T12:23:20;3.10;;;1.90;;
22632;SDS011;11483;55.828;37.488;2023-07-31T12:26:13;8.27;;;2.20;;
22632;SDS011;11483;55.828;37.488;2023-07-31T12:28:41;8.88;;;2.53;;
22632;SDS011;11483;55.828;37.488;2023-07-31T12:31:11;6.13;;;2.65;;
22632;SDS011;11483;55.828;37.488;2023-07-31T12:33:38;5.53;;;2.92;;
22632;SDS011;11483;55.828;37.488;2023-07-31T12:36:10;5.47;;;2.60;;
22632;SDS011;11483;55.828;37.488;2023-07-31T12:38:45;9.48;;;2.72;;
22632;SDS011;11483;55.828;37.488;2023-07-31T12:41:11;10.32;;;2.53;;
22632;SDS011;11483;55.828;37.488;2023-07-31T12:43:38;4.78;;;2.53;;
22632;SDS011;11483;55.828;37.488;2023-07-31T12:46:06;3.03;;;2.28;;
22632;SDS011;11483;55.828;37.488;2023-07-31T12:48:36;12.98;;;2.45;;
22632;SDS011;11483;55.828;37.488;2023-07-31T12:51:02;8.90;;;2.45;;
22632;SDS011;11483;55.828;37.488;2023-07-31T12:53:29;8.13;;;2.00;;
22632;SDS011;11483;55.828;37.488;2023-07-31T12:55:55;5.60;;;2.38;;
22632;SDS011;11483;55.828;37.488;2023-07-31T12:58:21;5.07;;;2.65;;
22632;SDS011;11483;55.828;37.488;2023-07-31T13:00:48;7.70;;;2.15;;
22632;SDS011;11483;55.828;37.488;2023-07-31T13:03:14;5.43;;;2.30;;
22632;SDS011;11483;55.828;37.488;2023-07-31T13:05:40;8.63;;;2.40;;
22632;SDS011;11483;55.828;37.488;2023-07-31T13:08:06;3.25;;;2.05;;
22632;SDS011;11483;55.828;37.488;2023-07-31T13:10:32;3.55;;;1.92;;
22632;SDS011;11483;55.828;37.488;2023-07-31T13:12:58;6.18;;;2.13;;
22632;SDS011;11483;55.828;37.488;2023-07-31T13:15:24;4.43;;;2.20;;
22632;SDS011;11483;55.828;37.488;2023-07-31T13:17:50;3.42;;;2.10;;
22632;SDS011;11483;55.828;37.488;2023-07-31T13:20:16;7.20;;;2.33;;
22632;SDS011;11483;55.828;37.488;2023-07-31T13:22:41;6.57;;;2.13;;
22632;SDS011;11483;55.828;37.488;2023-07-31T13:25:07;10.70;;;2.42;;
22632;SDS011;11483;55.828;37.488;2023-07-31T13:27:35;6.30;;;2.60;;
22632;SDS011;11483;55.828;37.488;2023-07-31T13:30:01;10.13;;;2.10;;
22632;SDS011;11483;55.828;37.488;2023-07-31T13:32:29;6.33;;;2.77;;
22632;SDS011;11483;55.828;37.488;2023-07-31T13:34:55;6.53;;;2.60;;
22632;SDS011;11483;55.828;37.488;2023-07-31T13:37:20;5.70;;;2.22;;
22632;SDS011;11483;55.828;37.488;2023-07-31T13:39:46;7.10;;;2.40;;
22632;SDS011;11483;55.828;37.488;2023-07-31T13:42:12;6.93;;;2.28;;
22632;SDS011;11483;55.828;37.488;2023-07-31T13:44:38;8.50;;;2.10;;
22632;SDS011;11483;55.828;37.488;2023-07-31T13:47:05;11.50;;;2.45;;
22632;SDS011;11483;55.828;37.488;2023-07-31T13:49:31;12.32;;;2.33;;
22632;SDS011;11483;55.828;37.488;2023-07-31T13:51:57;7.80;;;2.20;;
22632;SDS011;11483;55.828;37.488;2023-07-31T13:54:23;2.92;;;2.20;;
22632;SDS011;11483;55.828;37.488;2023-07-31T13:56:50;5.15;;;2.28;;
22632;SDS011;11483;55.828;37.488;2023-07-31T13:59:17;5.32;;;2.40;;
22632;SDS011;11483;55.828;37.488;2023-07-31T14:01:43;7.05;;;2.45;;
22632;SDS011;11483;55.828;37.488;2023-07-31T14:04:09;4.85;;;2.10;;
22632;SDS011;11483;55.828;37.488;2023-07-31T14:06:35;9.13;;;2.20;;
22632;SDS011;11483;55.828;37.488;2023-07-31T14:09:02;7.75;;;2.70;;
22632;SDS011;11483;55.828;37.488;2023-07-31T14:11:28;6.57;;;2.30;;
22632;SDS011;11483;55.828;37.488;2023-07-31T14:13:55;3.83;;;2.42;;
22632;SDS011;11483;55.828;37.488;2023-07-31T14:16:21;8.45;;;2.47;;
22632;SDS011;11483;55.828;37.488;2023-07-31T14:18:47;6.50;;;2.38;;
22632;SDS011;11483;55.828;37.488;2023-07-31T14:21:13;5.88;;;3.20;;
22632;SDS011;11483;55.828;37.488;2023-07-31T14:23:40;5.60;;;2.55;;
22632;SDS011;11483;55.828;37.488;2023-07-31T14:26:06;5.30;;;2.30;;
22632;SDS011;11483;55.828;37.488;2023-07-31T14:28:32;3.20;;;2.05;;
22632;SDS011;11483;55.828;37.488;2023-07-31T14:30:58;4.05;;;2.25;;
22632;SDS011;11483;55.828;37.488;2023-07-31T14:33:24;4.88;;;2.78;;
22632;SDS011;11483;55.828;37.488;2023-07-31T14:35:49;5.38;;;2.58;;
22632;SDS011;11483;55.828;37.488;2023-07-31T14:38:15;3.60;;;2.30;;
22632;SDS011;11483;55.828;37.488;2023-07-31T14:40:41;12.15;;;2.50;;
22632;SDS011;11483;55.828;37.488;2023-07-31T14:43:14;4.57;;;2.55;;
22632;SDS011;11483;55.828;37.488;2023-07-31T14:45:40;7.93;;;2.53;;
22632;SDS011;11483;55.828;37.488;2023-07-31T14:48:06;11.20;;;2.50;;
22632;SDS011;11483;55.828;37.488;2023-07-31T14:50:32;4.53;;;2.60;;
22632;SDS011;11483;55.828;37.488;2023-07-31T14:52:57;5.43;;;2.60;;
22632;SDS011;11483;55.828;37.488;2023-07-31T14:55:24;8.57;;;2.67;;
22632;SDS011;11483;55.828;37.488;2023-07-31T14:57:50;16.42;;;2.55;;
22632;SDS011;11483;55.828;37.488;2023-07-31T15:00:16;6.47;;;2.60;;
22632;SDS011;11483;55.828;37.488;2023-07-31T15:02:42;11.65;;;3.00;;
22632;SDS011;11483;55.828;37.488;2023-07-31T15:05:08;9.98;;;2.90;;
22632;SDS011;11483;55.828;37.488;2023-07-31T15:07:34;6.35;;;3.05;;
22632;SDS011;11483;55.828;37.488;2023-07-31T15:10:01;8.63;;;2.80;;
22632;SDS011;11483;55.828;37.488;2023-07-31T15:34:23;5.53;;;2.28;;
22632;SDS011;11483;55.828;37.488;2023-07-31T15:36:49;4.22;;;2.47;;
22632;SDS011;11483;55.828;37.488;2023-07-31T15:39:15;8.77;;;2.17;;
22632;SDS011;11483;55.828;37.488;2023-07-31T15:41:41;5.85;;;2.33;;
22632;SDS011;11483;55.828;37.488;2023-07-31T15:44:07;7.43;;;2.60;;
22632;SDS011;11483;55.828;37.488;2023-07-31T15:46:33;9.60;;;2.72;;
22632;SDS011;11483;55.828;37.488;2023-07-31T15:48:59;3.13;;;2.35;;
22632;SDS011;11483;55.828;37.488;2023-07-31T15:51:25;7.82;;;2.30;;
22632;SDS011;11483;55.828;37.488;2023-07-31T15:53:53;13.15;;;2.80;;
22632;SDS011;11483;55.828;37.488;2023-07-31T15:56:19;6.88;;;2.88;;
22632;SDS011;11483;55.828;37.488;2023-07-31T15:58:45;9.25;;;2.90;;
22632;SDS011;11483;55.828;37.488;2023-07-31T16:01:11;4.07;;;2.40;;
22632;SDS011;11483;55.828;37.488;2023-07-31T16:03:37;7.82;;;2.80;;
22632;SDS011;11483;55.828;37.488;2023-07-31T16:06:03;4.40;;;2.78;;
22632;SDS011;11483;55.828;37.488;2023-07-31T16:08:29;17.17;;;2.80;;
22632;SDS011;11483;55.828;37.488;2023-07-31T16:10:55;10.10;;;2.53;;
22632;SDS011;11483;55.828;37.488;2023-07-31T16:13:21;7.60;;;2.80;;
22632;SDS011;11483;55.828;37.488;2023-07-31T16:15:47;5.60;;;2.70;;
22632;SDS011;11483;55.828;37.488;2023-07-31T16:18:13;6.80;;;2.75;;
22632;SDS011;11483;55.828;37.488;2023-07-31T16:20:39;4.72;;;2.60;;
22632;SDS011;11483;55.828;37.488;2023-07-31T16:23:04;6.05;;;3.17;;
22632;SDS011;11483;55.828;37.488;2023-07-31T16:25:32;7.45;;;2.53;;
22632;SDS011;11483;55.828;37.488;2023-07-31T16:27:58;7.22;;;2.40;;
22632;SDS011;11483;55.828;37.488;2023-07-31T16:30:24;12.65;;;2.60;;
22632;SDS011;11483;55.828;37.488;2023-07-31T16:32:50;5.10;;;2.38;;
22632;SDS011;11483;55.828;37.488;2023-07-31T16:35:17;4.57;;;2.30;;
22632;SDS011;11483;55.828;37.488;2023-07-31T16:37:42;4.55;;;2.10;;
22632;SDS011;11483;55.828;37.488;2023-07-31T16:40:09;13.23;;;2.63;;
22632;SDS011;11483;55.828;37.488;2023-07-31T16:42:35;5.68;;;2.40;;
22632;SDS011;11483;55.828;37.488;2023-07-31T16:45:01;5.45;;;2.15;;
22632;SDS011;11483;55.828;37.488;2023-07-31T16:47:27;5.90;;;2.38;;